Hovedside
METAR-TAF:

METAR-TAF

Lufthavner :

Gällivare lufthavn

Gällivare, Sverige

breddegrad: 67-09N, lengdegrad: 020-39E, høyde over havet: 359 m

Gjeldene værobservasjon

Denne rapporten ble laget for 38 minutter siden, klokken 13:50 UTC
Vind 9 kt fra Sør, skiftende mellom Sørøst og Sør-sørvest
Temperatur 30°C
Luftfuktighet 27%
Trykk 1017 hPa
Sikt 10 km eller mer
ingen skyer under 1500 m og ingen bygeskyer

METAR: ESNG 181350Z 17009KT 130V200 CAVOK 30/09 Q1017

Tid: 16:28 (14:28 UTC)

Varsel

Denne rapporten ble laget for 2 timer og 58 minutter siden, klokken 11:30 UTC
Varsel gyldig fra 18. klokken 12 UTC til 18. klokken 18 UTC
Vind 10 kt fra Sør med vindkast opp mot 20 kt
Sikt 10 km eller mer
ingen skyer under 1500 m og ingen bygeskyer

TAF: ESNG 181130Z 1812/1818 18010G20KT CAVOK

Værobservasjoner og værvarsel for over 4000 flyplasser (METAR- og TAF-rapporter).

Tilgjengelige stasjoner er representert av de røde og gule prikkene på kartet.

Hold musepekeren over prikken for å se navnet på stasjonen.

Klikk så for å se værobservasjoner og -varsler.

For å forandre kartet kan du klikke på den grønne knappen med svart kryss for å zoome inn, på den grønne knappen med strek for å zoome ut, eller på de grønne pilene for å se tilstøtende kart.


METAR-TAF: